sensor_id;sensor_type;location;lat;lon;timestamp;pressure;altitude;pressure_sealevel;temperature;humidity
84310;BME280;74488;49.036;11.472;2024-01-11T00:00:29;98325.84;;;-6.37;85.16
84310;BME280;74488;49.036;11.472;2024-01-11T00:01:30;98328.44;;;-6.37;85.63
84310;BME280;74488;49.036;11.472;2024-01-11T00:02:32;98291.59;;;-6.65;85.31
84310;BME280;74488;49.036;11.472;2024-01-11T00:03:33;98323.13;;;-6.45;85.49
84310;BME280;74488;49.036;11.472;2024-01-11T00:04:35;98333.56;;;-6.43;86.21
84310;BME280;74488;49.036;11.472;2024-01-11T00:05:36;98322.19;;;-6.49;85.77
84310;BME280;74488;49.036;11.472;2024-01-11T00:06:44;98347.38;;;-6.43;85.53
84310;BME280;74488;49.036;11.472;2024-01-11T00:07:47;98340.47;;;-6.44;86.02
84310;BME280;74488;49.036;11.472;2024-01-11T00:08:48;98331.75;;;-6.46;85.69
84310;BME280;74488;49.036;11.472;2024-01-11T00:09:50;98328.38;;;-6.42;85.50
84310;BME280;74488;49.036;11.472;2024-01-11T00:10:51;98340.53;;;-6.39;85.27
84310;BME280;74488;49.036;11.472;2024-01-11T00:11:53;98321.34;;;-6.49;85.23
84310;BME280;74488;49.036;11.472;2024-01-11T00:12:54;98320.41;;;-6.51;85.47
84310;BME280;74488;49.036;11.472;2024-01-11T00:13:56;98336.09;;;-6.45;85.43
84310;BME280;74488;49.036;11.472;2024-01-11T00:14:58;98332.66;;;-6.44;85.28
84310;BME280;74488;49.036;11.472;2024-01-11T00:16:00;98330.03;;;-6.46;85.25
84310;BME280;74488;49.036;11.472;2024-01-11T00:17:02;98334.31;;;-6.48;84.92
84310;BME280;74488;49.036;11.472;2024-01-11T00:18:04;98335.16;;;-6.50;85.45
84310;BME280;74488;49.036;11.472;2024-01-11T00:19:05;98325.53;;;-6.54;85.74
84310;BME280;74488;49.036;11.472;2024-01-11T00:20:07;98317.69;;;-6.57;85.81
84310;BME280;74488;49.036;11.472;2024-01-11T00:21:09;98308.19;;;-6.58;86.10
84310;BME280;74488;49.036;11.472;2024-01-11T00:22:10;98323.94;;;-6.48;85.67
84310;BME280;74488;49.036;11.472;2024-01-11T00:23:12;98321.34;;;-6.49;85.86
84310;BME280;74488;49.036;11.472;2024-01-11T00:24:14;98323.94;;;-6.49;86.08
84310;BME280;74488;49.036;11.472;2024-01-11T00:25:15;98323.06;;;-6.50;85.94
84310;BME280;74488;49.036;11.472;2024-01-11T00:26:16;98319.56;;;-6.50;86.24
84310;BME280;74488;49.036;11.472;2024-01-11T00:27:18;98307.38;;;-6.54;85.87
84310;BME280;74488;49.036;11.472;2024-01-11T00:28:20;98319.69;;;-6.44;85.46
84310;BME280;74488;49.036;11.472;2024-01-11T00:29:21;98316.28;;;-6.40;85.39
84310;BME280;74488;49.036;11.472;2024-01-11T00:30:23;98319.94;;;-6.30;85.03
84310;BME280;74488;49.036;11.472;2024-01-11T00:31:24;98309.44;;;-6.38;84.95
84310;BME280;74488;49.036;11.472;2024-01-11T00:32:26;98323.31;;;-6.36;84.89
84310;BME280;74488;49.036;11.472;2024-01-11T00:33:28;98324.91;;;-6.43;84.95
84310;BME280;74488;49.036;11.472;2024-01-11T00:34:29;98322.19;;;-6.49;84.69
84310;BME280;74488;49.036;11.472;2024-01-11T00:35:31;98320.41;;;-6.51;84.81
84310;BME280;74488;49.036;11.472;2024-01-11T00:36:33;98321.22;;;-6.55;84.19
84310;BME280;74488;49.036;11.472;2024-01-11T00:37:36;98327.19;;;-6.59;84.57
84310;BME280;74488;49.036;11.472;2024-01-11T00:38:37;98328.81;;;-6.64;85.47
84310;BME280;74488;49.036;11.472;2024-01-11T00:39:39;98324.53;;;-6.62;85.42
84310;BME280;74488;49.036;11.472;2024-01-11T00:40:40;98323.63;;;-6.64;84.91
84310;BME280;74488;49.036;11.472;2024-01-11T00:41:42;98324.53;;;-6.62;84.78
84310;BME280;74488;49.036;11.472;2024-01-11T00:42:43;98323.63;;;-6.63;85.63
84310;BME280;74488;49.036;11.472;2024-01-11T00:43:45;98320.16;;;-6.65;85.19
84310;BME280;74488;49.036;11.472;2024-01-11T00:44:47;98303.56;;;-6.71;85.34
84310;BME280;74488;49.036;11.472;2024-01-11T00:45:48;98322.78;;;-6.63;85.20
84310;BME280;74488;49.036;11.472;2024-01-11T00:46:50;98326.34;;;-6.58;84.81
84310;BME280;74488;49.036;11.472;2024-01-11T00:47:51;98332.28;;;-6.64;85.48
84310;BME280;74488;49.036;11.472;2024-01-11T00:48:53;98334.91;;;-6.62;85.50
84310;BME280;74488;49.036;11.472;2024-01-11T00:49:57;98336.59;;;-6.64;85.50
84310;BME280;74488;49.036;11.472;2024-01-11T00:50:59;98336.53;;;-6.67;86.14
84310;BME280;74488;49.036;11.472;2024-01-11T00:52:00;98338.28;;;-6.66;85.27
84310;BME280;74488;49.036;11.472;2024-01-11T00:53:02;98335.78;;;-6.60;85.75
84310;BME280;74488;49.036;11.472;2024-01-11T00:54:04;98340.16;;;-6.59;85.05
84310;BME280;74488;49.036;11.472;2024-01-11T00:55:06;98350.41;;;-6.65;85.03
84310;BME280;74488;49.036;11.472;2024-01-11T00:56:18;98320.59;;;-6.85;85.00
84310;BME280;74488;49.036;11.472;2024-01-11T00:57:20;98340.69;;;-6.75;86.20
84310;BME280;74488;49.036;11.472;2024-01-11T00:58:23;98350.19;;;-6.77;85.93
84310;BME280;74488;49.036;11.472;2024-01-11T00:59:24;98344.09;;;-6.78;85.82
84310;BME280;74488;49.036;11.472;2024-01-11T01:00:26;98345.88;;;-6.75;85.81
84310;BME280;74488;49.036;11.472;2024-01-11T01:01:27;98340.66;;;-6.77;85.80
84310;BME280;74488;49.036;11.472;2024-01-11T01:02:29;98343.28;;;-6.75;85.78
84310;BME280;74488;49.036;11.472;2024-01-11T01:03:30;98334.66;;;-6.74;86.18
84310;BME280;74488;49.036;11.472;2024-01-11T01:04:32;98342.53;;;-6.70;85.43
84310;BME280;74488;49.036;11.472;2024-01-11T01:05:33;98342.69;;;-6.62;85.52
84310;BME280;74488;49.036;11.472;2024-01-11T01:06:35;98339.22;;;-6.63;85.95
84310;BME280;74488;49.036;11.472;2024-01-11T01:07:37;98335.66;;;-6.68;85.48
84310;BME280;74488;49.036;11.472;2024-01-11T01:08:38;98343.56;;;-6.62;85.66
84310;BME280;74488;49.036;11.472;2024-01-11T01:09:40;98338.22;;;-6.69;86.02
84310;BME280;74488;49.036;11.472;2024-01-11T01:10:41;98344.19;;;-6.73;85.99
84310;BME280;74488;49.036;11.472;2024-01-11T01:11:43;98343.28;;;-6.75;85.92
84310;BME280;74488;49.036;11.472;2024-01-11T01:12:45;98351.03;;;-6.77;85.98
84310;BME280;74488;49.036;11.472;2024-01-11T01:13:46;98346.75;;;-6.75;85.89
84310;BME280;74488;49.036;11.472;2024-01-11T01:14:47;98345.91;;;-6.74;85.34
84310;BME280;74488;49.036;11.472;2024-01-11T01:15:49;98346.75;;;-6.75;85.01
84310;BME280;74488;49.036;11.472;2024-01-11T01:16:50;98349.34;;;-6.75;85.94
84310;BME280;74488;49.036;11.472;2024-01-11T01:17:52;98345.88;;;-6.75;85.45
84310;BME280;74488;49.036;11.472;2024-01-11T01:18:54;98353.63;;;-6.77;86.10
84310;BME280;74488;49.036;11.472;2024-01-11T01:19:55;98347.53;;;-6.79;85.58
84310;BME280;74488;49.036;11.472;2024-01-11T01:20:57;98350.94;;;-6.81;85.35
84310;BME280;74488;49.036;11.472;2024-01-11T01:21:58;98346.47;;;-6.88;85.28
84310;BME280;74488;49.036;11.472;2024-01-11T01:23:00;98346.50;;;-6.87;85.53
84310;BME280;74488;49.036;11.472;2024-01-11T01:24:02;98349.09;;;-6.87;85.61
84310;BME280;74488;49.036;11.472;2024-01-11T01:25:04;98347.38;;;-6.86;85.34
84310;BME280;74488;49.036;11.472;2024-01-11T01:26:06;98359.53;;;-6.84;85.60
84310;BME280;74488;49.036;11.472;2024-01-11T01:27:08;98347.34;;;-6.88;85.63
84310;BME280;74488;49.036;11.472;2024-01-11T01:28:09;98350.88;;;-6.84;86.05
84310;BME280;74488;49.036;11.472;2024-01-11T01:29:11;98354.34;;;-6.84;86.22
84310;BME280;74488;49.036;11.472;2024-01-11T01:30:13;98358.66;;;-6.84;86.29
84310;BME280;74488;49.036;11.472;2024-01-11T01:31:14;98359.53;;;-6.84;86.29
84310;BME280;74488;49.036;11.472;2024-01-11T01:32:16;98356.06;;;-6.84;86.24
84310;BME280;74488;49.036;11.472;2024-01-11T01:33:18;98357.72;;;-6.88;86.80
84310;BME280;74488;49.036;11.472;2024-01-11T01:34:19;98353.34;;;-6.90;86.41
84310;BME280;74488;49.036;11.472;2024-01-11T01:35:21;98357.66;;;-6.91;86.39
84310;BME280;74488;49.036;11.472;2024-01-11T01:36:22;98353.31;;;-6.92;86.35
84310;BME280;74488;49.036;11.472;2024-01-11T01:37:24;98349.78;;;-6.94;86.32
84310;BME280;74488;49.036;11.472;2024-01-11T01:38:25;98355.78;;;-6.98;86.03
84310;BME280;74488;49.036;11.472;2024-01-11T01:39:27;98351.53;;;-6.94;86.18
84310;BME280;74488;49.036;11.472;2024-01-11T01:40:30;98351.53;;;-6.94;86.47
84310;BME280;74488;49.036;11.472;2024-01-11T01:41:33;98349.84;;;-6.92;85.93
84310;BME280;74488;49.036;11.472;2024-01-11T01:42:34;98350.66;;;-6.95;85.90
84310;BME280;74488;49.036;11.472;2024-01-11T01:43:36;98352.38;;;-6.94;86.54
84310;BME280;74488;49.036;11.472;2024-01-11T01:44:37;98342.94;;;-6.92;86.08
84310;BME280;74488;49.036;11.472;2024-01-11T01:45:42;98345.53;;;-6.92;85.66
84310;BME280;74488;49.036;11.472;2024-01-11T01:46:44;98349.00;;;-6.91;85.45
84310;BME280;74488;49.036;11.472;2024-01-11T01:47:46;98336.88;;;-6.92;85.47
84310;BME280;74488;49.036;11.472;2024-01-11T01:48:47;98350.13;;;-6.80;85.73
84310;BME280;74488;49.036;11.472;2024-01-11T01:49:49;98345.94;;;-6.72;85.72
84310;BME280;74488;49.036;11.472;2024-01-11T01:50:51;98347.63;;;-6.74;85.52
84310;BME280;74488;49.036;11.472;2024-01-11T01:51:53;98350.13;;;-6.80;85.24
84310;BME280;74488;49.036;11.472;2024-01-11T01:52:55;98353.44;;;-6.86;84.96
84310;BME280;74488;49.036;11.472;2024-01-11T01:53:57;98349.00;;;-6.91;85.81
84310;BME280;74488;49.036;11.472;2024-01-11T01:55:02;98353.28;;;-6.93;84.94
84310;BME280;74488;49.036;11.472;2024-01-11T01:56:04;98357.56;;;-6.95;85.15
84310;BME280;74488;49.036;11.472;2024-01-11T01:57:07;98352.44;;;-6.92;85.17
84310;BME280;74488;49.036;11.472;2024-01-11T01:58:10;98343.63;;;-7.00;85.48
84310;BME280;74488;49.036;11.472;2024-01-11T01:59:11;98348.91;;;-6.96;85.57
84310;BME280;74488;49.036;11.472;2024-01-11T02:00:14;98353.19;;;-6.96;85.72
84310;BME280;74488;49.036;11.472;2024-01-11T02:01:16;98362.69;;;-6.98;85.32
84310;BME280;74488;49.036;11.472;2024-01-11T02:02:19;98356.53;;;-7.02;85.70
84310;BME280;74488;49.036;11.472;2024-01-11T02:03:23;98359.06;;;-7.05;85.56
84310;BME280;74488;49.036;11.472;2024-01-11T02:04:26;98367.72;;;-7.06;85.77
84310;BME280;74488;49.036;11.472;2024-01-11T02:05:28;98360.75;;;-7.07;85.83
84310;BME280;74488;49.036;11.472;2024-01-11T02:06:31;98365.94;;;-7.09;85.47
84310;BME280;74488;49.036;11.472;2024-01-11T02:07:34;98362.44;;;-7.09;85.47
84310;BME280;74488;49.036;11.472;2024-01-11T02:08:36;98344.91;;;-7.21;85.29
84310;BME280;74488;49.036;11.472;2024-01-11T02:09:39;98362.47;;;-7.08;85.92
84310;BME280;74488;49.036;11.472;2024-01-11T02:10:41;98372.84;;;-7.08;85.61
84310;BME280;74488;49.036;11.472;2024-01-11T02:11:44;98370.22;;;-7.09;86.04
84310;BME280;74488;49.036;11.472;2024-01-11T02:12:46;98378.00;;;-7.09;85.60
84310;BME280;74488;49.036;11.472;2024-01-11T02:13:50;98334.31;;;-7.30;86.14
84310;BME280;74488;49.036;11.472;2024-01-11T02:14:53;98373.69;;;-7.09;86.24
84310;BME280;74488;49.036;11.472;2024-01-11T02:15:54;98328.88;;;-7.42;86.01
84310;BME280;74488;49.036;11.472;2024-01-11T02:16:56;98373.66;;;-7.10;86.71
84310;BME280;74488;49.036;11.472;2024-01-11T02:17:57;98373.56;;;-7.15;86.83
84310;BME280;74488;49.036;11.472;2024-01-11T02:18:59;98376.09;;;-7.16;86.68
84310;BME280;74488;49.036;11.472;2024-01-11T02:20:01;98375.19;;;-7.18;86.44
84310;BME280;74488;49.036;11.472;2024-01-11T02:21:07;98369.06;;;-7.22;86.89
84310;BME280;74488;49.036;11.472;2024-01-11T02:22:24;98365.66;;;-7.21;86.58
84310;BME280;74488;49.036;11.472;2024-01-11T02:23:29;98363.06;;;-7.21;86.89
84310;BME280;74488;49.036;11.472;2024-01-11T02:24:31;98356.19;;;-7.19;86.94
84310;BME280;74488;49.036;11.472;2024-01-11T02:25:33;98325.44;;;-7.41;86.40
84310;BME280;74488;49.036;11.472;2024-01-11T02:26:35;98352.63;;;-7.22;86.60
84310;BME280;74488;49.036;11.472;2024-01-11T02:27:49;98364.75;;;-7.23;86.61
84310;BME280;74488;49.036;11.472;2024-01-11T02:28:51;98356.91;;;-7.24;87.17
84310;BME280;74488;49.036;11.472;2024-01-11T02:29:53;98357.72;;;-7.27;88.04
84310;BME280;74488;49.036;11.472;2024-01-11T02:30:54;98351.72;;;-7.26;87.30
84310;BME280;74488;49.036;11.472;2024-01-11T02:31:56;98349.19;;;-7.23;87.23
84310;BME280;74488;49.036;11.472;2024-01-11T02:32:58;98350.91;;;-7.22;87.13
84310;BME280;74488;49.036;11.472;2024-01-11T02:34:00;98350.09;;;-7.21;86.85
84310;BME280;74488;49.036;11.472;2024-01-11T02:35:02;98301.97;;;-7.48;86.57
84310;BME280;74488;49.036;11.472;2024-01-11T02:36:05;98349.22;;;-7.21;87.30
84310;BME280;74488;49.036;11.472;2024-01-11T02:37:07;98344.94;;;-7.19;86.89
84310;BME280;74488;49.036;11.472;2024-01-11T02:38:09;98341.47;;;-7.20;86.98
84310;BME280;74488;49.036;11.472;2024-01-11T02:39:11;98347.56;;;-7.18;86.87
84310;BME280;74488;49.036;11.472;2024-01-11T02:40:13;98350.09;;;-7.21;86.78
84310;BME280;74488;49.036;11.472;2024-01-11T02:41:16;98349.19;;;-7.23;86.75
84310;BME280;74488;49.036;11.472;2024-01-11T02:42:17;98346.63;;;-7.21;86.15
84310;BME280;74488;49.036;11.472;2024-01-11T02:43:19;98341.44;;;-7.21;86.48
84310;BME280;74488;49.036;11.472;2024-01-11T02:44:20;98346.59;;;-7.23;86.28
84310;BME280;74488;49.036;11.472;2024-01-11T02:45:22;98342.16;;;-7.27;86.41
84310;BME280;74488;49.036;11.472;2024-01-11T02:46:23;98344.78;;;-7.25;86.45
84310;BME280;74488;49.036;11.472;2024-01-11T02:47:25;98348.25;;;-7.26;86.97
84310;BME280;74488;49.036;11.472;2024-01-11T02:48:30;98347.38;;;-7.25;87.10
84310;BME280;74488;49.036;11.472;2024-01-11T02:49:32;98349.13;;;-7.26;86.90
84310;BME280;74488;49.036;11.472;2024-01-11T02:50:33;98342.16;;;-7.27;86.58
84310;BME280;74488;49.036;11.472;2024-01-11T02:51:35;98341.28;;;-7.29;87.00
84310;BME280;74488;49.036;11.472;2024-01-11T02:52:37;98338.69;;;-7.27;86.48
84310;BME280;74488;49.036;11.472;2024-01-11T02:53:39;98344.75;;;-7.27;86.42
84310;BME280;74488;49.036;11.472;2024-01-11T02:54:41;98339.59;;;-7.25;86.63
84310;BME280;74488;49.036;11.472;2024-01-11T02:55:42;98337.81;;;-7.28;86.44
84310;BME280;74488;49.036;11.472;2024-01-11T02:56:44;98342.97;;;-7.29;86.00
84310;BME280;74488;49.036;11.472;2024-01-11T02:57:45;98329.97;;;-7.32;86.46
84310;BME280;74488;49.036;11.472;2024-01-11T02:58:47;98340.34;;;-7.31;86.64
84310;BME280;74488;49.036;11.472;2024-01-11T02:59:49;98335.16;;;-7.31;86.26
84310;BME280;74488;49.036;11.472;2024-01-11T03:00:51;98336.91;;;-7.30;86.93
84310;BME280;74488;49.036;11.472;2024-01-11T03:01:52;98328.31;;;-7.29;86.67
84310;BME280;74488;49.036;11.472;2024-01-11T03:02:54;98329.19;;;-7.28;86.75
84310;BME280;74488;49.036;11.472;2024-01-11T03:03:56;98348.16;;;-7.29;87.26
84310;BME280;74488;49.036;11.472;2024-01-11T03:04:57;98336.84;;;-7.33;87.28
84310;BME280;74488;49.036;11.472;2024-01-11T03:05:59;98327.22;;;-7.38;87.45
84310;BME280;74488;49.036;11.472;2024-01-11T03:07:01;98322.91;;;-7.38;87.00
84310;BME280;74488;49.036;11.472;2024-01-11T03:08:02;98331.56;;;-7.37;86.47
84310;BME280;74488;49.036;11.472;2024-01-11T03:09:04;98332.38;;;-7.40;86.76
84310;BME280;74488;49.036;11.472;2024-01-11T03:10:06;98330.53;;;-7.45;86.79
84310;BME280;74488;49.036;11.472;2024-01-11T03:11:07;98337.50;;;-7.43;87.27
84310;BME280;74488;49.036;11.472;2024-01-11T03:12:09;98327.06;;;-7.44;86.90
84310;BME280;74488;49.036;11.472;2024-01-11T03:13:10;98300.94;;;-7.55;86.89
84310;BME280;74488;49.036;11.472;2024-01-11T03:14:12;98320.16;;;-7.45;85.77
84310;BME280;74488;49.036;11.472;2024-01-11T03:15:14;98326.34;;;-7.39;85.76
84310;BME280;74488;49.036;11.472;2024-01-11T03:16:15;98321.16;;;-7.39;86.31
84310;BME280;74488;49.036;11.472;2024-01-11T03:17:17;98324.53;;;-7.43;86.37
84310;BME280;74488;49.036;11.472;2024-01-11T03:18:18;98322.72;;;-7.47;87.71
84310;BME280;74488;49.036;11.472;2024-01-11T03:19:20;98322.78;;;-7.44;86.18
84310;BME280;74488;49.036;11.472;2024-01-11T03:20:22;98323.69;;;-7.42;86.55
84310;BME280;74488;49.036;11.472;2024-01-11T03:21:26;98315.97;;;-7.39;86.47
84310;BME280;74488;49.036;11.472;2024-01-11T03:22:27;98253.78;;;-7.78;86.03
84310;BME280;74488;49.036;11.472;2024-01-11T03:23:29;98315.97;;;-7.40;86.35
84310;BME280;74488;49.036;11.472;2024-01-11T03:24:30;98247.72;;;-7.78;86.16
84310;BME280;74488;49.036;11.472;2024-01-11T03:25:32;98316.84;;;-7.40;86.51
84310;BME280;74488;49.036;11.472;2024-01-11T03:26:33;98318.50;;;-7.42;86.12
84310;BME280;74488;49.036;11.472;2024-01-11T03:27:35;98317.59;;;-7.44;85.86
84310;BME280;74488;49.036;11.472;2024-01-11T03:28:36;98324.53;;;-7.43;85.77
84310;BME280;74488;49.036;11.472;2024-01-11T03:29:38;98317.56;;;-7.45;85.63
84310;BME280;74488;49.036;11.472;2024-01-11T03:30:39;98317.53;;;-7.47;86.11
84310;BME280;74488;49.036;11.472;2024-01-11T03:31:41;98320.91;;;-7.51;85.75
84310;BME280;74488;49.036;11.472;2024-01-11T03:32:43;98318.31;;;-7.51;86.24
84310;BME280;74488;49.036;11.472;2024-01-11T03:33:45;98320.84;;;-7.54;85.65
84310;BME280;74488;49.036;11.472;2024-01-11T03:34:47;98318.19;;;-7.55;85.82
84310;BME280;74488;49.036;11.472;2024-01-11T03:35:48;98319.00;;;-7.58;86.25
84310;BME280;74488;49.036;11.472;2024-01-11T03:36:50;98319.91;;;-7.56;86.89
84310;BME280;74488;49.036;11.472;2024-01-11T03:37:51;98319.06;;;-7.55;87.33
84310;BME280;74488;49.036;11.472;2024-01-11T03:38:53;98319.94;;;-7.54;87.68
84310;BME280;74488;49.036;11.472;2024-01-11T03:39:54;98317.28;;;-7.57;87.66
84310;BME280;74488;49.036;11.472;2024-01-11T03:40:56;98317.19;;;-7.62;87.77
84310;BME280;74488;49.036;11.472;2024-01-11T03:41:57;98316.47;;;-7.56;86.92
84310;BME280;74488;49.036;11.472;2024-01-11T03:42:59;98318.16;;;-7.57;87.46
84310;BME280;74488;49.036;11.472;2024-01-11T03:44:01;98314.72;;;-7.56;87.01
84310;BME280;74488;49.036;11.472;2024-01-11T03:45:03;98306.72;;;-7.67;87.00
84310;BME280;74488;49.036;11.472;2024-01-11T03:46:05;98308.47;;;-7.66;86.88
84310;BME280;74488;49.036;11.472;2024-01-11T03:47:07;98318.03;;;-7.62;86.51
84310;BME280;74488;49.036;11.472;2024-01-11T03:48:08;98303.25;;;-7.67;86.52
84310;BME280;74488;49.036;11.472;2024-01-11T03:49:10;98315.44;;;-7.63;86.45
84310;BME280;74488;49.036;11.472;2024-01-11T03:50:11;98322.31;;;-7.65;86.93
84310;BME280;74488;49.036;11.472;2024-01-11T03:51:13;98322.31;;;-7.65;86.76
84310;BME280;74488;49.036;11.472;2024-01-11T03:52:15;98316.25;;;-7.66;86.87
84310;BME280;74488;49.036;11.472;2024-01-11T03:53:16;98316.25;;;-7.64;86.61
84310;BME280;74488;49.036;11.472;2024-01-11T03:54:18;98315.28;;;-7.69;86.49
84310;BME280;74488;49.036;11.472;2024-01-11T03:55:19;98299.66;;;-7.72;86.52
84310;BME280;74488;49.036;11.472;2024-01-11T03:56:22;98312.78;;;-7.65;86.23
84310;BME280;74488;49.036;11.472;2024-01-11T03:57:23;98314.47;;;-7.68;86.17
84310;BME280;74488;49.036;11.472;2024-01-11T03:58:25;98309.22;;;-7.70;86.66
84310;BME280;74488;49.036;11.472;2024-01-11T03:59:27;98313.56;;;-7.69;86.96
84310;BME280;74488;49.036;11.472;2024-01-11T04:00:29;98321.38;;;-7.67;87.10
84310;BME280;74488;49.036;11.472;2024-01-11T04:01:31;98312.72;;;-7.68;86.89
84310;BME280;74488;49.036;11.472;2024-01-11T04:02:32;98326.53;;;-7.67;87.63
84310;BME280;74488;49.036;11.472;2024-01-11T04:03:34;98312.59;;;-7.74;87.04
84310;BME280;74488;49.036;11.472;2024-01-11T04:04:35;98313.56;;;-7.69;87.19
84310;BME280;74488;49.036;11.472;2024-01-11T04:05:37;98331.72;;;-7.69;87.94
84310;BME280;74488;49.036;11.472;2024-01-11T04:06:38;98323.88;;;-7.70;87.65
84310;BME280;74488;49.036;11.472;2024-01-11T04:07:40;98319.50;;;-7.73;87.42
84310;BME280;74488;49.036;11.472;2024-01-11T04:08:41;98322.91;;;-7.75;87.65
84310;BME280;74488;49.036;11.472;2024-01-11T04:09:43;98326.34;;;-7.76;87.16
84310;BME280;74488;49.036;11.472;2024-01-11T04:10:45;98328.00;;;-7.80;87.49
84310;BME280;74488;49.036;11.472;2024-01-11T04:11:46;98329.69;;;-7.82;88.24
84310;BME280;74488;49.036;11.472;2024-01-11T04:12:48;98328.72;;;-7.85;87.91
84310;BME280;74488;49.036;11.472;2024-01-11T04:13:49;98326.16;;;-7.84;88.47
84310;BME280;74488;49.036;11.472;2024-01-11T04:14:51;98331.38;;;-7.82;88.53
84310;BME280;74488;49.036;11.472;2024-01-11T04:15:52;98327.03;;;-7.83;88.28
84310;BME280;74488;49.036;11.472;2024-01-11T04:16:54;98321.84;;;-7.83;88.03
84310;BME280;74488;49.036;11.472;2024-01-11T04:17:55;98328.75;;;-7.84;88.38
84310;BME280;74488;49.036;11.472;2024-01-11T04:18:57;98323.56;;;-7.84;88.61
84310;BME280;74488;49.036;11.472;2024-01-11T04:19:59;98318.44;;;-7.82;88.23
84310;BME280;74488;49.036;11.472;2024-01-11T04:21:00;98302.81;;;-7.85;88.77
84310;BME280;74488;49.036;11.472;2024-01-11T04:22:02;98316.00;;;-7.76;88.61
84310;BME280;74488;49.036;11.472;2024-01-11T04:23:03;98322.97;;;-7.74;88.06
84310;BME280;74488;49.036;11.472;2024-01-11T04:24:05;98315.22;;;-7.72;87.80
84310;BME280;74488;49.036;11.472;2024-01-11T04:25:08;98307.28;;;-7.80;88.53
84310;BME280;74488;49.036;11.472;2024-01-11T04:26:09;98324.69;;;-7.73;88.79
84310;BME280;74488;49.036;11.472;2024-01-11T04:27:11;98321.19;;;-7.75;88.68
84310;BME280;74488;49.036;11.472;2024-01-11T04:28:13;98317.56;;;-7.81;88.45
84310;BME280;74488;49.036;11.472;2024-01-11T04:29:14;98323.69;;;-7.79;88.38
84310;BME280;74488;49.036;11.472;2024-01-11T04:30:16;98289.50;;;-8.00;88.22
84310;BME280;74488;49.036;11.472;2024-01-11T04:31:17;98327.09;;;-7.80;88.13
84310;BME280;74488;49.036;11.472;2024-01-11T04:32:19;98321.03;;;-7.81;87.32
84310;BME280;74488;49.036;11.472;2024-01-11T04:33:20;98321.03;;;-7.81;87.41
84310;BME280;74488;49.036;11.472;2024-01-11T04:34:22;98321.03;;;-7.81;87.51
84310;BME280;74488;49.036;11.472;2024-01-11T04:35:24;98327.09;;;-7.80;87.24
84310;BME280;74488;49.036;11.472;2024-01-11T04:36:25;98328.81;;;-7.81;87.79
84310;BME280;74488;49.036;11.472;2024-01-11T04:37:27;98329.59;;;-7.85;87.51
84310;BME280;74488;49.036;11.472;2024-01-11T04:38:28;98333.97;;;-7.82;87.38
84310;BME280;74488;49.036;11.472;2024-01-11T04:39:31;98328.81;;;-7.81;87.59
84310;BME280;74488;49.036;11.472;2024-01-11T04:40:32;98319.44;;;-7.76;87.78
84310;BME280;74488;49.036;11.472;2024-01-11T04:41:35;98326.53;;;-7.69;86.99
84310;BME280;74488;49.036;11.472;2024-01-11T04:42:38;98322.22;;;-7.68;87.25
84310;BME280;74488;49.036;11.472;2024-01-11T04:43:41;98320.47;;;-7.69;87.80
84310;BME280;74488;49.036;11.472;2024-01-11T04:44:43;98325.56;;;-7.72;87.77
84310;BME280;74488;49.036;11.472;2024-01-11T04:45:44;98326.41;;;-7.73;87.67
84310;BME280;74488;49.036;11.472;2024-01-11T04:46:46;98320.38;;;-7.72;87.33
84310;BME280;74488;49.036;11.472;2024-01-11T04:47:50;98317.72;;;-7.75;87.89
84310;BME280;74488;49.036;11.472;2024-01-11T04:48:52;98332.38;;;-7.77;87.67
84310;BME280;74488;49.036;11.472;2024-01-11T04:49:55;98322.75;;;-7.81;87.83
84310;BME280;74488;49.036;11.472;2024-01-11T04:50:56;98327.09;;;-7.80;87.87
84310;BME280;74488;49.036;11.472;2024-01-11T04:51:58;98332.28;;;-7.80;87.25
84310;BME280;74488;49.036;11.472;2024-01-11T04:52:59;98333.16;;;-7.80;87.06
84310;BME280;74488;49.036;11.472;2024-01-11T04:54:01;98334.06;;;-7.78;86.97
84310;BME280;74488;49.036;11.472;2024-01-11T04:55:03;98336.72;;;-7.76;86.97
84310;BME280;74488;49.036;11.472;2024-01-11T04:56:06;98279.78;;;-8.10;87.28
84310;BME280;74488;49.036;11.472;2024-01-11T04:57:08;98334.13;;;-7.76;87.61
84310;BME280;74488;49.036;11.472;2024-01-11T04:58:09;98333.97;;;-7.82;87.15
84310;BME280;74488;49.036;11.472;2024-01-11T04:59:11;98335.75;;;-7.80;87.00
84310;BME280;74488;49.036;11.472;2024-01-11T05:00:12;98331.25;;;-7.87;86.79
84310;BME280;74488;49.036;11.472;2024-01-11T05:01:15;98338.84;;;-7.94;87.43
84310;BME280;74488;49.036;11.472;2024-01-11T05:02:20;98333.59;;;-7.97;87.53
84310;BME280;74488;49.036;11.472;2024-01-11T05:03:22;98331.81;;;-8.00;87.76
84310;BME280;74488;49.036;11.472;2024-01-11T05:04:23;98345.78;;;-7.93;87.29
84310;BME280;74488;49.036;11.472;2024-01-11T05:05:25;98341.41;;;-7.96;87.16
84310;BME280;74488;49.036;11.472;2024-01-11T05:06:27;98341.44;;;-7.93;87.53
84310;BME280;74488;49.036;11.472;2024-01-11T05:07:28;98350.09;;;-7.92;87.38
84310;BME280;74488;49.036;11.472;2024-01-11T05:08:30;98337.84;;;-7.99;87.73
84310;BME280;74488;49.036;11.472;2024-01-11T05:09:31;98354.53;;;-7.88;88.30
84310;BME280;74488;49.036;11.472;2024-01-11T05:10:35;98344.91;;;-7.92;87.45
84310;BME280;74488;49.036;11.472;2024-01-11T05:11:37;98336.28;;;-7.93;87.77
84310;BME280;74488;49.036;11.472;2024-01-11T05:12:39;98344.91;;;-7.94;87.85
84310;BME280;74488;49.036;11.472;2024-01-11T05:13:40;98357.84;;;-7.94;87.15
84310;BME280;74488;49.036;11.472;2024-01-11T05:14:42;98314.97;;;-8.17;87.79
84310;BME280;74488;49.036;11.472;2024-01-11T05:15:43;98354.38;;;-7.94;87.67
84310;BME280;74488;49.036;11.472;2024-01-11T05:16:45;98354.38;;;-7.94;87.33
84310;BME280;74488;49.036;11.472;2024-01-11T05:17:47;98354.38;;;-7.94;87.90
84310;BME280;74488;49.036;11.472;2024-01-11T05:18:49;98342.25;;;-7.95;87.67
84310;BME280;74488;49.036;11.472;2024-01-11T05:19:51;98351.16;;;-7.84;87.45
84310;BME280;74488;49.036;11.472;2024-01-11T05:20:53;98346.03;;;-7.83;87.25
84310;BME280;74488;49.036;11.472;2024-01-11T05:21:54;98342.66;;;-7.79;87.98
84310;BME280;74488;49.036;11.472;2024-01-11T05:22:56;98349.78;;;-7.70;87.57
84310;BME280;74488;49.036;11.472;2024-01-11T05:23:57;98358.50;;;-7.68;87.48